Time;durP1;ratioP1;P1;durP2;ratioP2;P2;SDS_P1;SDS_P2;PMS_P1;PMS_P2;Temp;Humidity;BMP_temperature;BMP_pressure;BME280_temperature;BME280_humidity;BME280_pressure;Samples;Min_cycle;Max_cycle;Signal;HPM_P1;HPM_P2
2022/12/20 00:01:46;;;;;;;18.80;8.88;;;;;;;-1.33;90.51;102410.41;5088225;28;20028;-27
2022/12/20 00:04:12;;;;;;;100.25;40.10;;;;;;;-1.56;91.19;102395.97;5086753;28;20115;-27
2022/12/20 00:06:37;;;;;;;26.30;12.05;;;;;;;-1.50;91.26;102416.56;5088129;28;20038;-26
2022/12/20 00:09:05;;;;;;;31.95;14.93;;;;;;;-1.42;90.75;102422.22;5087736;28;20031;-26
2022/12/20 00:11:31;;;;;;;28.73;12.90;;;;;;;-1.53;90.97;102416.72;5088047;28;20509;-30
2022/12/20 00:13:57;;;;;;;25.60;12.95;;;;;;;-1.60;90.85;102420.59;5069753;28;20028;-29
2022/12/20 00:16:25;;;;;;;34.08;15.68;;;;;;;-1.48;91.36;102427.78;5069639;28;20035;-28
2022/12/20 00:18:56;;;;;;;32.38;16.85;;;;;;;-1.64;90.97;102410.28;5087750;28;20028;-25
2022/12/20 00:21:22;;;;;;;49.17;23.00;;;;;;;-1.63;89.80;102400.69;5069140;28;20168;-25
2022/12/20 00:23:48;;;;;;;35.80;16.25;;;;;;;-1.79;88.92;102398.03;5088053;28;20027;-26
2022/12/20 00:26:16;;;;;;;39.95;17.90;;;;;;;-1.71;89.75;102411.53;5069506;28;20127;-26
2022/12/20 00:28:42;;;;;;;37.97;17.52;;;;;;;-1.75;90.11;102402.16;5087658;28;20020;-25
2022/12/20 00:31:09;;;;;;;62.25;30.08;;;;;;;-1.44;89.60;102411.84;5087602;28;20044;-25
2022/12/20 00:33:37;;;;;;;36.95;19.67;;;;;;;-1.43;90.04;102410.06;5087062;28;20104;-28
2022/12/20 00:36:04;;;;;;;33.70;15.20;;;;;;;-1.45;89.64;102419.75;5087439;28;20542;-25
2022/12/20 00:38:29;;;;;;;35.28;15.90;;;;;;;-1.30;88.90;102413.72;5087497;28;20084;-26
2022/12/20 00:41:09;;;;;;;40.58;16.45;;;;;;;-1.40;88.61;102407.28;5087475;28;20023;-27
2022/12/20 00:43:36;;;;;;;32.47;14.52;;;;;;;-1.43;89.35;102389.13;5086215;28;20499;-29
2022/12/20 00:46:02;;;;;;;37.83;17.05;;;;;;;-1.40;88.49;102402.03;5069329;28;20039;-27
2022/12/20 00:48:29;;;;;;;32.33;19.73;;;;;;;-1.27;89.44;102403.09;5087343;28;20031;-26
2022/12/20 00:51:00;;;;;;;26.90;12.73;;;;;;;-1.26;88.99;102412.59;5087808;28;20024;-26
2022/12/20 00:53:26;;;;;;;50.67;17.58;;;;;;;-1.76;88.49;102366.47;5085760;28;20070;-25
2022/12/20 00:55:51;;;;;;;47.88;18.60;;;;;;;-1.53;88.25;102401.00;5085805;28;20085;-30
2022/12/20 00:58:17;;;;;;;38.03;15.38;;;;;;;-1.56;88.98;102388.09;5086122;28;20399;-29
2022/12/20 01:00:42;;;;;;;40.42;16.23;;;;;;;-1.60;88.51;102373.50;5085449;28;20600;-28
2022/12/20 01:03:08;;;;;;;68.95;21.80;;;;;;;-1.70;88.07;102366.13;5085294;28;20036;-26
2022/12/20 01:05:33;;;;;;;51.80;18.05;;;;;;;-1.64;87.63;102359.72;5068948;28;20039;-26
2022/12/20 01:07:59;;;;;;;71.07;25.90;;;;;;;-1.66;89.20;102357.19;5086026;28;20024;-29
2022/12/20 01:10:24;;;;;;;42.65;21.95;;;;;;;-1.58;88.52;102366.41;5087201;28;20036;-27
2022/12/20 01:12:50;;;;;;;32.47;16.90;;;;;;;-1.72;87.83;102354.06;5068853;28;20031;-26
2022/12/20 01:15:16;;;;;;;31.73;19.75;;;;;;;-1.82;88.85;102338.00;5068678;28;20024;-27
2022/12/20 01:17:42;;;;;;;34.10;13.60;;;;;;;-1.81;89.17;102360.66;5085371;28;20020;-26
2022/12/20 01:20:07;;;;;;;37.97;13.50;;;;;;;-2.10;88.15;102365.63;5087048;28;20036;-28
2022/12/20 01:22:33;;;;;;;25.48;10.50;;;;;;;-1.85;87.87;102366.97;5087517;28;20028;-27
2022/12/20 01:24:58;;;;;;;36.20;17.02;;;;;;;-1.97;87.85;102334.47;5069026;28;20032;-25
2022/12/20 01:27:24;;;;;;;41.15;18.98;;;;;;;-1.92;88.19;102357.75;5086936;28;20184;-25
2022/12/20 01:29:50;;;;;;;45.05;27.05;;;;;;;-1.89;87.99;102365.44;5086954;28;20043;-27
2022/12/20 01:32:15;;;;;;;26.45;12.38;;;;;;;-2.28;89.53;102336.06;5068138;28;20525;-25
2022/12/20 01:34:41;;;;;;;28.40;13.80;;;;;;;-2.08;88.90;102348.09;5086817;28;20024;-25
2022/12/20 01:37:06;;;;;;;30.30;12.55;;;;;;;-1.81;89.06;102347.56;5068464;28;20043;-25
2022/12/20 01:39:32;;;;;;;26.25;12.45;;;;;;;-2.21;88.45;102331.34;5086849;28;20082;-25
2022/12/20 01:41:57;;;;;;;25.45;10.95;;;;;;;-2.02;88.59;102353.00;5087252;28;20032;-25
2022/12/20 01:44:22;;;;;;;25.75;10.90;;;;;;;-1.95;88.77;102353.53;5086627;28;20028;-27
2022/12/20 01:46:49;;;;;;;23.42;10.63;;;;;;;-2.03;88.61;102348.69;5086542;28;20035;-26
2022/12/20 01:49:28;;;;;;;28.52;12.55;;;;;;;-2.03;88.06;102346.06;5086762;28;20044;-27
2022/12/20 01:52:04;;;;;;;36.80;16.95;;;;;;;-1.97;89.62;102313.53;5088796;28;20426;-27
2022/12/20 01:54:33;;;;;;;40.92;18.20;;;;;;;-1.86;89.12;102333.88;5072467;28;20077;-26
2022/12/20 01:57:07;;;;;;;34.03;13.73;;;;;;;-2.09;89.82;102309.78;5089192;28;20042;-30
2022/12/20 01:59:36;;;;;;;26.52;10.27;;;;;;;-1.99;90.61;102330.25;5090599;28;20020;-27
2022/12/20 02:02:06;;;;;;;24.75;10.52;;;;;;;-2.09;88.52;102304.56;5072288;28;20032;-26
2022/12/20 02:04:32;;;;;;;27.02;10.00;;;;;;;-1.85;89.37;102332.97;5072240;28;20016;-25
2022/12/20 02:06:58;;;;;;;20.15;9.60;;;;;;;-1.99;88.76;102323.22;5088975;28;20035;-27
2022/12/20 02:09:24;;;;;;;22.13;9.43;;;;;;;-1.93;89.93;102325.53;5090547;28;20028;-26
2022/12/20 02:12:13;;;;;;;24.05;9.38;;;;;;;-1.84;88.49;102324.19;5071973;28;20597;-25
2022/12/20 02:15:07;;;;;;;17.75;8.43;;;;;;;-1.85;87.45;102322.50;5072023;28;20122;-27
2022/12/20 02:17:48;;;;;;;21.95;8.65;;;;;;;-1.87;86.87;102324.34;5072045;28;20139;-27
2022/12/20 02:20:45;;;;;;;19.50;9.75;;;;;;;-2.33;89.35;102317.19;5088746;28;20036;-26
2022/12/20 02:23:38;;;;;;;20.60;9.57;;;;;;;-2.44;89.82;102309.88;5090083;28;20031;-26
2022/12/20 02:26:51;;;;;;;20.05;9.23;;;;;;;-2.36;90.05;102309.47;5090194;28;20063;-25
2022/12/20 02:29:35;;;;;;;20.27;8.70;;;;;;;-2.20;89.15;102303.47;5021757;28;20039;-26
2022/12/20 02:32:08;;;;;;;32.95;22.17;;;;;;;-2.15;88.33;102283.97;5071394;28;20056;-29
2022/12/20 02:34:37;;;;;;;20.15;8.88;;;;;;;-2.23;87.80;102289.63;5089946;28;20024;-28
2022/12/20 02:37:02;;;;;;;;;;;;;;;-1.83;87.38;102311.03;5072185;28;20476;-26
2022/12/20 02:39:31;;;;;;;18.20;8.30;;;;;;;-1.97;87.61;102297.00;5090142;28;19919;-26
2022/12/20 02:42:00;;;;;;;17.48;7.22;;;;;;;-2.17;88.45;102290.22;5071697;28;20028;-26
2022/12/20 02:47:17;;;;;;;;;;;;;;;-2.37;88.74;102294.75;5090051;28;20031;-26
2022/12/20 02:49:45;;;;;;;24.00;9.63;;;;;;;-2.72;91.21;102294.75;5089756;28;19935;-25
2022/12/20 02:52:12;;;;;;;27.05;12.13;;;;;;;-2.70;92.24;102292.06;5090014;28;20024;-28
2022/12/20 02:54:38;;;;;;;29.67;13.48;;;;;;;-2.38;90.42;102298.25;5089672;28;20057;-26
2022/12/20 02:57:12;;;;;;;24.95;12.27;;;;;;;-2.58;91.81;102301.91;5089400;28;20843;-27
2022/12/20 02:59:54;;;;;;;37.50;23.00;;;;;;;-2.46;90.55;102293.44;5089781;28;20055;-27
2022/12/20 03:02:20;;;;;;;28.42;14.15;;;;;;;-2.56;91.39;102294.81;5089679;28;20107;-26
2022/12/20 03:04:48;;;;;;;36.53;16.80;;;;;;;-2.30;91.13;102279.59;5089582;28;20069;-28
2022/12/20 03:07:13;;;;;;;47.03;21.00;;;;;;;-2.27;89.98;102295.09;5089094;28;20039;-27
2022/12/20 03:09:42;;;;;;;41.55;19.92;;;;;;;-2.20;90.02;102291.25;5087949;28;20044;-25
2022/12/20 03:12:10;;;;;;;38.03;16.30;;;;;;;-2.42;90.45;102294.13;5089370;28;20139;-26
2022/12/20 03:14:36;;;;;;;35.05;14.73;;;;;;;-2.89;92.12;102266.91;5089553;28;20066;-25
2022/12/20 03:17:02;;;;;;;30.80;13.82;;;;;;;-2.93;93.16;102286.25;5089111;28;20126;-29
2022/12/20 03:19:27;;;;;;;66.88;33.25;;;;;;;-2.42;91.95;102292.34;5070928;28;20036;-26
2022/12/20 03:21:53;;;;;;;52.33;23.90;;;;;;;-2.69;92.48;102294.63;5088912;28;20020;-30
2022/12/20 03:24:18;;;;;;;63.70;32.92;;;;;;;-2.62;92.35;102284.69;5088876;28;20032;-25
2022/12/20 03:26:44;;;;;;;43.28;22.50;;;;;;;-2.44;91.77;102267.22;5070418;28;20249;-26
2022/12/20 03:29:10;;;;;;;42.08;17.85;;;;;;;-2.31;91.18;102283.09;5087171;28;20027;-25
2022/12/20 03:31:36;;;;;;;46.45;21.95;;;;;;;-2.52;92.03;102288.53;5088580;28;20036;-26
2022/12/20 03:34:02;;;;;;;39.53;18.05;;;;;;;-2.53;92.88;102265.94;5088547;28;20098;-27
2022/12/20 03:36:28;;;;;;;44.83;19.83;;;;;;;-2.53;91.95;102286.00;5088814;28;20032;-26
2022/12/20 03:38:53;;;;;;;38.25;19.85;;;;;;;-2.30;91.15;102295.25;5088493;28;20157;-26
2022/12/20 03:41:21;;;;;;;39.58;17.80;;;;;;;-2.46;91.20;102276.91;5088307;28;20028;-29
2022/12/20 03:43:47;;;;;;;43.83;17.67;;;;;;;-2.23;90.63;102296.59;5088764;28;20031;-26
2022/12/20 03:46:13;;;;;;;32.67;15.80;;;;;;;-2.67;90.42;102284.09;5070457;28;20036;-27
2022/12/20 03:48:38;;;;;;;34.10;17.38;;;;;;;-2.62;90.08;102289.91;5070332;28;20103;-26
2022/12/20 03:51:04;;;;;;;33.92;16.13;;;;;;;-2.81;91.82;102281.34;5088088;28;20483;-25
2022/12/20 03:53:29;;;;;;;32.13;15.35;;;;;;;-2.90;92.30;102286.09;5070053;28;20451;-27
2022/12/20 03:55:55;;;;;;;32.22;13.35;;;;;;;-2.97;91.45;102263.81;5087949;28;20032;-26
2022/12/20 03:58:20;;;;;;;28.52;12.82;;;;;;;-3.09;91.21;102269.66;5070144;28;20032;-26
2022/12/20 04:00:46;;;;;;;30.20;15.15;;;;;;;-2.76;90.66;102295.00;5088278;28;20494;-26
2022/12/20 04:03:12;;;;;;;32.00;14.52;;;;;;;-2.71;90.73;102287.78;5088011;28;20074;-25
2022/12/20 04:05:37;;;;;;;33.85;16.05;;;;;;;-2.90;90.78;102265.22;5088184;28;20035;-27
2022/12/20 04:08:03;;;;;;;38.00;16.85;;;;;;;-2.79;90.64;102269.88;5088124;28;20055;-28
2022/12/20 04:10:28;;;;;;;34.70;16.63;;;;;;;-2.48;89.49;102294.44;5069702;28;20404;-26
2022/12/20 04:12:54;;;;;;;33.53;15.90;;;;;;;-2.89;91.33;102293.00;5088155;28;20024;-26
2022/12/20 04:15:19;;;;;;;31.80;13.95;;;;;;;-2.54;89.18;102295.59;5087462;28;20032;-25
2022/12/20 04:17:44;;;;;;;24.52;11.50;;;;;;;-2.88;89.51;102284.25;5088084;28;20032;-25
2022/12/20 04:20:19;;;;;;;25.98;10.90;;;;;;;-3.24;89.88;102251.22;5088121;28;20031;-25
2022/12/20 04:22:49;;;;;;;33.20;13.98;;;;;;;-3.07;90.56;102286.09;5088000;28;20519;-25
2022/12/20 04:25:17;;;;;;;34.17;15.00;;;;;;;-2.96;91.33;102283.81;5087830;28;20032;-26
2022/12/20 04:27:43;;;;;;;31.55;13.27;;;;;;;-2.90;89.32;102280.00;5086427;28;20388;-26
2022/12/20 04:30:09;;;;;;;27.48;11.68;;;;;;;-3.11;89.42;102261.06;5088169;28;20039;-28
2022/12/20 04:32:35;;;;;;;21.10;9.45;;;;;;;-3.11;89.96;102276.72;5087545;28;20063;-31
2022/12/20 04:35:00;;;;;;;24.33;10.30;;;;;;;-3.22;89.93;102287.69;5087793;28;20407;-25
2022/12/20 04:37:26;;;;;;;22.08;9.93;;;;;;;-3.49;89.83;102285.50;5069107;28;20040;-26
2022/12/20 04:39:52;;;;;;;21.67;8.70;;;;;;;-3.38;90.02;102278.91;5069203;28;20505;-27
2022/12/20 04:42:17;;;;;;;23.02;9.30;;;;;;;-3.40;88.91;102255.50;5088127;28;20624;-26
2022/12/20 04:44:43;;;;;;;19.15;8.38;;;;;;;-3.26;88.42;102283.53;5087677;28;20107;-25
2022/12/20 04:47:09;;;;;;;21.13;9.38;;;;;;;-3.16;87.85;102274.34;5068850;28;20127;-27
2022/12/20 04:49:34;;;;;;;26.17;9.32;;;;;;;-3.11;88.03;102287.16;5087592;28;20098;-27
2022/12/20 04:53:46;;;;;;;22.65;9.00;;;;;;;-3.24;88.68;102276.47;5087273;28;20112;-27
2022/12/20 04:54:46;;;;;;;25.45;9.95;;;;;;;-3.47;89.92;102280.22;5087060;28;20565;-25
2022/12/20 04:57:12;;;;;;;33.58;13.30;;;;;;;-3.21;90.41;102275.47;5087425;28;20035;-27
2022/12/20 04:59:38;;;;;;;27.55;9.88;;;;;;;-3.55;90.55;102256.25;5068861;28;20047;-26
2022/12/20 05:02:03;;;;;;;22.83;9.80;;;;;;;-3.45;89.76;102265.31;5085753;28;20571;-26
2022/12/20 05:04:28;;;;;;;22.92;9.75;;;;;;;-3.51;90.54;102279.50;5087193;28;20510;-26
2022/12/20 05:06:54;;;;;;;20.65;8.13;;;;;;;-3.54;89.93;102284.00;5087067;28;20059;-27
2022/12/20 05:09:19;;;;;;;17.98;7.97;;;;;;;-3.38;88.09;102279.75;5087118;28;20059;-26
2022/12/20 05:11:45;;;;;;;20.85;8.00;;;;;;;-3.38;88.65;102279.75;5068966;28;20113;-26
2022/12/20 05:14:10;;;;;;;20.90;8.23;;;;;;;-3.41;88.71;102279.91;5087198;28;20028;-27
2022/12/20 05:16:37;;;;;;;20.02;8.07;;;;;;;-3.38;89.67;102264.09;5086944;28;20115;-29
2022/12/20 05:19:03;;;;;;;21.97;8.13;;;;;;;-3.15;89.13;102259.53;5085343;28;20035;-26
2022/12/20 05:26:59;;;;;;;20.48;8.50;;;;;;;-3.73;92.89;102226.69;5089220;28;20102;-26
2022/12/20 05:29:24;;;;;;;23.35;9.27;;;;;;;-3.86;93.85;102227.25;5090920;28;20065;-30
2022/12/20 05:31:50;;;;;;;20.02;9.02;;;;;;;-3.79;94.38;102251.28;5090844;28;20089;-26
2022/12/20 05:34:16;;;;;;;18.60;8.75;;;;;;;-3.75;94.31;102255.41;5091329;28;20040;-26
2022/12/20 05:36:41;;;;;;;21.15;8.38;;;;;;;-3.81;93.84;102229.63;5072493;28;20024;-24
2022/12/20 05:39:07;;;;;;;22.23;9.10;;;;;;;-3.77;93.88;102252.03;5090041;28;20484;-25
2022/12/20 05:41:32;;;;;;;20.13;8.90;;;;;;;-3.72;93.52;102250.06;5090810;28;20024;-27
2022/12/20 05:43:58;;;;;;;20.67;8.43;;;;;;;-3.78;93.80;102255.59;5091066;28;20036;-25
2022/12/20 05:46:23;;;;;;;18.80;8.18;;;;;;;-4.01;95.63;102227.13;5090805;28;20498;-28
2022/12/20 05:48:48;;;;;;;21.73;11.02;;;;;;;-4.13;97.85;102234.56;5056067;28;20404;-26
2022/12/20 05:51:14;;;;;;;24.05;10.77;;;;;;;-3.86;96.70;102236.84;5090721;28;20020;-27
2022/12/20 05:53:39;;;;;;;26.48;12.35;;;;;;;-3.75;96.53;102245.00;5090775;28;20043;-24
2022/12/20 05:56:05;;;;;;;30.55;12.95;;;;;;;-3.54;96.73;102250.94;5090747;28;20036;-25
2022/12/20 05:58:31;;;;;;;41.78;22.90;;;;;;;-3.59;97.11;102252.09;5090899;28;20084;-26
2022/12/20 06:01:00;;;;;;;31.73;17.13;;;;;;;-3.29;96.51;102247.16;5090263;28;20074;-26
2022/12/20 06:03:25;;;;;;;31.48;15.48;;;;;;;-3.27;96.95;102243.56;5090495;28;20042;-27
2022/12/20 06:05:51;;;;;;;25.77;12.38;;;;;;;-2.97;95.97;102258.59;5090696;28;20403;-25
2022/12/20 06:08:16;;;;;;;27.67;13.20;;;;;;;-2.83;95.24;102256.13;5090574;28;20097;-30
2022/12/20 06:10:42;;;;;;;28.20;12.50;;;;;;;-2.81;94.46;102240.41;5090623;28;20016;-26
2022/12/20 06:13:08;;;;;;;26.58;12.25;;;;;;;-2.64;94.47;102265.66;5071963;28;20407;-26
2022/12/20 06:15:34;;;;;;;25.80;10.52;;;;;;;-2.70;94.21;102237.22;5071752;28;20028;-28
2022/12/20 06:17:59;;;;;;;23.50;10.75;;;;;;;-2.45;93.39;102260.31;5090492;28;20031;-27
2022/12/20 06:20:25;;;;;;;28.23;11.27;;;;;;;-2.38;93.09;102246.00;5090419;28;20415;-27
2022/12/20 06:22:51;;;;;;;23.38;10.32;;;;;;;-2.45;92.54;102224.59;5090305;28;20056;-27
2022/12/20 06:25:17;;;;;;;24.67;10.45;;;;;;;-2.40;93.68;102258.31;5090063;28;20040;-26
2022/12/20 06:27:42;;;;;;;25.15;10.70;;;;;;;-2.23;93.79;102260.00;5090135;28;20035;-26
2022/12/20 06:30:09;;;;;;;25.23;11.30;;;;;;;-2.20;94.39;102259.88;5071681;28;20032;-25
2022/12/20 06:32:35;;;;;;;463.02;212.43;;;;;;;-2.12;94.33;102249.84;5089942;28;20060;-27
2022/12/20 06:35:00;;;;;;;150.88;66.10;;;;;;;-2.19;94.78;102245.84;5090066;28;20457;-26
2022/12/20 06:37:26;;;;;;;71.93;37.20;;;;;;;-2.10;94.80;102266.28;5089371;28;20131;-27
2022/12/20 06:39:52;;;;;;;29.02;13.52;;;;;;;-1.96;93.34;102243.78;5090164;28;20024;-26
2022/12/20 06:42:17;;;;;;;25.52;12.60;;;;;;;-1.64;92.31;102258.53;5088351;28;20393;-28
2022/12/20 06:44:43;;;;;;;25.17;11.68;;;;;;;-1.56;91.70;102238.94;5089627;28;20027;-27
2022/12/20 06:47:08;;;;;;;24.67;12.23;;;;;;;-1.79;92.02;102228.00;5089722;28;20406;-26
2022/12/20 06:49:34;;;;;;;30.75;14.13;;;;;;;-1.75;92.52;102258.28;5071401;28;20031;-26
2022/12/20 06:51:59;;;;;;;38.30;18.02;;;;;;;-1.82;93.46;102270.00;5090107;28;20032;-27
2022/12/20 06:54:25;;;;;;;39.53;17.80;;;;;;;-1.83;93.69;102258.72;5088094;28;20032;-28
2022/12/20 06:56:50;;;;;;;34.78;15.80;;;;;;;-1.61;93.33;102254.91;5089706;28;20032;-32
2022/12/20 06:59:16;;;;;;;37.92;17.27;;;;;;;-1.53;93.20;102260.56;5089081;28;20028;-27
2022/12/20 07:01:42;;;;;;;40.90;17.00;;;;;;;-1.43;92.02;102255.63;5071282;28;20031;-25
2022/12/20 07:04:07;;;;;;;51.70;20.42;;;;;;;-1.51;92.39;102226.44;5089465;28;20034;-26
2022/12/20 07:06:33;;;;;;;31.60;14.23;;;;;;;-1.45;93.17;102239.19;5089669;28;20028;-26
2022/12/20 07:08:58;;;;;;;26.92;14.88;;;;;;;-1.15;93.08;102238.34;5071001;28;20032;-26
2022/12/20 07:11:24;;;;;;;25.70;12.00;;;;;;;-1.26;92.06;102244.22;5087425;28;20036;-29
2022/12/20 07:13:54;;;;;;;27.55;12.32;;;;;;;-1.23;93.17;102239.66;5070703;28;20024;-28
2022/12/20 07:16:20;;;;;;;26.50;11.38;;;;;;;-1.34;93.53;102243.81;5089220;28;20032;-26
2022/12/20 07:18:49;;;;;;;33.63;14.82;;;;;;;-1.05;93.97;102247.38;5089384;28;20035;-27
2022/12/20 07:21:16;;;;;;;28.17;12.82;;;;;;;-1.12;93.36;102240.81;5070440;28;20089;-25
2022/12/20 07:23:41;;;;;;;28.02;13.07;;;;;;;-1.04;92.59;102221.09;5089044;28;20112;-29
2022/12/20 07:26:08;;;;;;;36.70;16.83;;;;;;;-0.98;91.52;102219.91;5088865;28;20081;-27
2022/12/20 07:28:33;;;;;;;40.55;16.33;;;;;;;-0.78;91.92;102238.81;5070408;28;20038;-27
2022/12/20 07:31:00;;;;;;;46.22;18.17;;;;;;;-0.87;91.63;102242.81;5070513;28;20035;-26
2022/12/20 07:33:26;;;;;;;31.80;13.70;;;;;;;-0.81;92.49;102238.06;5069935;28;20158;-27
2022/12/20 07:35:51;;;;;;;28.15;12.48;;;;;;;-0.35;91.04;102247.53;5088900;28;20031;-26
2022/12/20 07:38:16;;;;;;;45.17;19.10;;;;;;;-0.42;91.75;102233.97;5088736;28;20108;-26
2022/12/20 07:40:42;;;;;;;26.70;12.15;;;;;;;-0.50;90.95;102241.47;5088655;28;20035;-28
2022/12/20 07:43:09;;;;;;;26.67;11.85;;;;;;;-0.57;90.38;102219.19;5088392;28;20024;-29
2022/12/20 07:45:34;;;;;;;24.23;11.63;;;;;;;-0.37;90.46;102225.81;5070382;28;20389;-26
2022/12/20 07:48:00;;;;;;;27.50;12.07;;;;;;;-0.14;89.23;102234.91;5088521;28;20054;-28
2022/12/20 07:50:27;;;;;;;26.73;12.35;;;;;;;0.06;88.79;102238.03;5087679;28;20038;-25
2022/12/20 07:52:53;;;;;;;24.20;12.48;;;;;;;0.19;88.68;102231.09;5088450;28;20028;-25
2022/12/20 07:55:19;;;;;;;26.67;12.57;;;;;;;0.24;88.73;102236.88;5069821;28;20036;-28
2022/12/20 07:57:53;;;;;;;24.05;12.38;;;;;;;0.43;87.89;102235.69;5088212;28;20436;-26
2022/12/20 08:00:19;;;;;;;29.55;14.52;;;;;;;0.45;86.39;102233.78;5070225;28;20028;-28
2022/12/20 08:03:10;;;;;;;29.98;13.27;;;;;;;0.69;86.62;102215.59;5088319;28;20560;-26
2022/12/20 08:05:40;;;;;;;34.08;17.23;;;;;;;0.79;87.28;102217.50;5070022;28;20643;-29
2022/12/20 08:08:07;;;;;;;30.52;14.52;;;;;;;1.41;82.54;102223.91;5069395;28;20696;-25
2022/12/20 08:10:32;;;;;;;24.20;11.75;;;;;;;1.38;79.77;102239.88;5069891;28;20028;-27
2022/12/20 08:12:58;;;;;;;25.00;11.00;;;;;;;1.41;79.46;102237.03;5088140;28;20077;-27
2022/12/20 08:15:24;;;;;;;25.83;12.38;;;;;;;1.42;80.09;102246.59;5088006;28;20042;-30
2022/12/20 08:17:50;;;;;;;23.40;12.05;;;;;;;1.77;79.64;102238.03;5069755;28;20027;-28
2022/12/20 08:20:16;;;;;;;24.88;13.18;;;;;;;1.57;80.87;102232.41;5087811;28;20423;-28
2022/12/20 08:22:42;;;;;;;29.38;13.93;;;;;;;1.47;81.88;102206.81;5069546;28;20118;-25
2022/12/20 08:25:08;;;;;;;25.13;13.48;;;;;;;1.84;79.92;102222.66;5087509;28;20070;-26
2022/12/20 08:27:34;;;;;;;28.25;14.38;;;;;;;1.95;80.12;102196.44;5087845;28;20045;-25
2022/12/20 08:29:59;;;;;;;29.80;14.73;;;;;;;1.47;82.58;102207.69;5087642;28;20032;-28
2022/12/20 08:32:25;;;;;;;26.90;13.18;;;;;;;1.65;81.50;102209.97;5087561;28;20059;-27
2022/12/20 08:34:51;;;;;;;26.77;13.75;;;;;;;1.67;81.17;102194.91;5069426;28;20115;-28
2022/12/20 08:37:18;;;;;;;24.88;12.95;;;;;;;2.06;77.99;102206.19;5087280;28;20036;-27
2022/12/20 08:39:44;;;;;;;24.15;12.82;;;;;;;1.98;77.62;102207.59;5069423;28;20048;-28
2022/12/20 08:42:10;;;;;;;28.75;13.02;;;;;;;2.03;78.36;102202.00;5086145;28;20031;-28
2022/12/20 08:44:36;;;;;;;24.05;13.00;;;;;;;1.87;76.88;102173.28;5069322;28;20032;-27
2022/12/20 08:47:01;;;;;;;26.20;13.35;;;;;;;1.99;77.92;102188.19;5085981;28;20039;-26
2022/12/20 08:49:27;;;;;;;18.73;9.10;;;;;;;1.79;76.63;102178.25;5087260;28;20032;-27
2022/12/20 08:51:52;;;;;;;24.55;12.10;;;;;;;1.75;78.50;102163.66;5087084;28;20024;-25
2022/12/20 08:54:17;;;;;;;27.40;13.20;;;;;;;1.95;80.82;102146.44;5087309;28;20039;-28
2022/12/20 08:56:43;;;;;;;25.52;12.48;;;;;;;2.28;77.44;102165.97;5085727;28;20558;-29
2022/12/20 08:59:08;;;;;;;23.98;12.05;;;;;;;2.33;76.92;102162.06;5068726;28;20020;-27
2022/12/20 09:01:34;;;;;;;23.73;11.35;;;;;;;2.63;75.61;102158.06;5087172;28;20080;-27
2022/12/20 09:03:59;;;;;;;23.52;10.80;;;;;;;2.94;73.52;102158.38;5086949;28;20043;-31
2022/12/20 09:06:25;;;;;;;22.95;11.38;;;;;;;2.39;74.93;102147.56;5086894;28;20475;-26
2022/12/20 09:08:51;;;;;;;21.35;10.32;;;;;;;2.76;74.50;102152.75;5087204;28;20032;-27
2022/12/20 09:11:19;;;;;;;28.13;12.68;;;;;;;2.75;73.74;102146.63;5087185;28;20020;-28
2022/12/20 09:13:47;;;;;;;29.63;13.00;;;;;;;2.93;73.22;102147.00;5070205;28;20749;-27
2022/12/20 09:16:15;;;;;;;25.60;12.85;;;;;;;3.05;72.96;102124.16;5068605;28;20502;-30
2022/12/20 09:18:41;;;;;;;;;;;;;;;3.16;73.27;102134.69;5069069;28;20031;-28
2022/12/20 09:21:08;;;;;;;21.80;11.50;;;;;;;3.10;74.01;102126.41;5068349;28;19916;-27
2022/12/20 09:23:35;;;;;;;24.60;13.05;;;;;;;3.07;74.75;102109.06;5087244;28;20028;-27
2022/12/20 09:26:03;;;;;;;36.75;17.98;;;;;;;3.61;74.29;102097.72;5085494;28;20028;-28
2022/12/20 09:28:30;;;;;;;40.95;18.83;;;;;;;4.01;73.84;102112.97;5068538;28;20729;-28
2022/12/20 09:31:00;;;;;;;29.27;14.55;;;;;;;4.08;72.28;102109.81;5068634;28;20032;-29
2022/12/20 09:33:27;;;;;;;22.83;12.13;;;;;;;3.94;71.11;102093.31;5068127;28;20113;-30
2022/12/20 09:35:53;;;;;;;25.20;12.20;;;;;;;3.72;72.95;102101.28;5068660;28;20032;-29
2022/12/20 09:38:18;;;;;;;22.67;11.13;;;;;;;4.03;73.46;102089.09;5068760;28;20047;-27
2022/12/20 09:40:50;;;;;;;23.48;11.80;;;;;;;4.39;72.65;102106.34;5086921;28;20067;-26
2022/12/20 09:43:17;;;;;;;23.77;11.82;;;;;;;4.37;71.68;102102.97;5068611;28;20637;-27
2022/12/20 09:45:45;;;;;;;24.58;12.30;;;;;;;4.31;71.58;102089.44;5068452;28;20043;-28
2022/12/20 09:48:24;;;;;;;24.83;14.07;;;;;;;4.95;72.12;102105.13;5068414;28;20027;-32
2022/12/20 09:50:52;;;;;;;;;;;;;;;5.08;70.91;102094.31;5069176;28;20518;-29
2022/12/20 09:53:23;;;;;;;24.88;11.65;;;;;;;5.30;71.06;102095.13;5086680;28;19908;-30
2022/12/20 09:56:02;;;;;;;24.88;11.93;;;;;;;4.72;69.62;102088.59;5068166;28;20028;-28
2022/12/20 09:58:50;;;;;;;24.92;11.70;;;;;;;5.17;69.99;102077.66;5068412;28;20062;-31
2022/12/20 10:01:18;;;;;;;;;;;;;;;5.61;65.72;102075.53;5068714;28;20024;-29
2022/12/20 10:03:44;;;;;;;14.82;8.07;;;;;;;5.32;65.25;102072.00;5068578;28;19919;-26
2022/12/20 10:06:28;;;;;;;22.17;11.05;;;;;;;4.95;66.49;102054.06;5086771;28;20040;-27
2022/12/20 10:08:56;;;;;;;20.88;10.25;;;;;;;4.80;67.27;102050.91;5068217;28;20484;-29
2022/12/20 10:11:37;;;;;;;;;;;;;;;5.01;69.46;102043.78;5086651;28;20032;-29
2022/12/20 10:14:20;;;;;;;21.88;10.80;;;;;;;5.05;69.36;102028.50;5090215;28;20716;-30
2022/12/20 10:16:55;;;;;;;18.15;8.75;;;;;;;5.09;65.05;102024.59;5090319;28;20503;-29
2022/12/20 10:19:57;;;;;;;22.27;10.75;;;;;;;5.37;66.67;102043.31;5072583;28;20085;-30
2022/12/20 10:22:37;;;;;;;17.73;9.98;;;;;;;4.98;67.68;102037.91;5071940;28;20113;-33
2022/12/20 10:25:32;;;;;;;22.42;10.60;;;;;;;5.33;65.17;102037.47;5090231;28;20043;-29
2022/12/20 10:28:01;;;;;;;21.45;10.75;;;;;;;5.63;68.55;102017.19;5072946;28;20522;-27
2022/12/20 10:30:28;;;;;;;19.77;10.50;;;;;;;6.03;65.78;102014.41;5072002;28;20065;-31
2022/12/20 10:32:56;;;;;;;22.83;10.65;;;;;;;5.99;65.47;102013.03;5089928;28;20060;-27
2022/12/20 10:35:27;;;;;;;18.90;9.63;;;;;;;5.94;64.64;102015.22;5071698;28;20020;-28
2022/12/20 10:38:05;;;;;;;19.50;10.82;;;;;;;5.77;65.09;102010.63;5071561;28;20040;-29
2022/12/20 10:40:36;;;;;;;20.27;10.57;;;;;;;5.98;62.69;101974.25;5071896;28;20064;-30
2022/12/20 10:43:05;;;;;;;18.70;8.73;;;;;;;5.71;63.88;101992.66;5071633;28;20079;-36
2022/12/20 10:45:40;;;;;;;20.88;9.63;;;;;;;6.40;64.72;101996.91;5071469;28;20032;-27
2022/12/20 10:48:31;;;;;;;21.15;10.13;;;;;;;6.64;63.37;101999.09;5088136;28;20546;-30
2022/12/20 10:51:19;;;;;;;16.67;9.75;;;;;;;7.30;58.13;101995.38;5076754;28;20032;-27
2022/12/20 10:54:02;;;;;;;20.40;8.75;;;;;;;7.12;58.47;101987.38;5089681;28;20028;-28
2022/12/20 10:56:33;;;;;;;17.67;9.43;;;;;;;6.57;58.53;101988.19;5070669;28;20039;-31
2022/12/20 10:59:21;;;;;;;19.33;9.82;;;;;;;6.74;61.40;101983.97;5089358;28;20028;-33
2022/12/20 11:01:48;;;;;;;16.90;9.40;;;;;;;7.53;58.60;101971.03;5088843;28;20032;-34
2022/12/20 11:04:33;;;;;;;16.77;9.45;;;;;;;7.54;56.91;101973.56;5089594;28;20044;-29
2022/12/20 11:07:01;;;;;;;17.65;9.82;;;;;;;7.33;57.42;101965.03;5070835;28;20097;-33
2022/12/20 11:09:32;;;;;;;17.10;9.18;;;;;;;7.40;56.17;101958.16;5089098;28;20032;-28
2022/12/20 11:12:14;;;;;;;17.27;9.25;;;;;;;7.29;55.86;101953.88;5071032;28;20843;-28
2022/12/20 11:14:42;;;;;;;19.23;9.65;;;;;;;7.73;57.32;101934.53;5071227;28;20042;-28
2022/12/20 11:17:24;;;;;;;20.40;9.38;;;;;;;7.69;55.90;101954.44;5070568;28;20111;-27
2022/12/20 11:20:25;;;;;;;17.17;9.18;;;;;;;7.27;55.41;101941.75;5070823;28;20085;-28
2022/12/20 11:23:17;;;;;;;19.65;9.73;;;;;;;7.43;56.23;101940.09;5070738;28;20035;-29
2022/12/20 11:26:02;;;;;;;19.10;9.27;;;;;;;8.29;55.43;101933.22;5088397;28;20070;-27
2022/12/20 11:29:06;;;;;;;18.80;8.55;;;;;;;8.94;53.69;101924.72;5089125;28;20102;-31
2022/12/20 11:31:53;;;;;;;17.80;9.13;;;;;;;8.08;55.72;101916.84;5088489;28;20134;-28